Time;durP1;ratioP1;P1;durP2;ratioP2;P2;SDS_P1;SDS_P2;PMS_P1;PMS_P2;Temp;Humidity;BMP_temperature;BMP_pressure;BME280_temperature;BME280_humidity;BME280_pressure;Samples;Min_cycle;Max_cycle;Signal;HPM_P1;HPM_P2
2024/01/27 00:00:35;;;;;;;1999.90;999.90;;;0.00;99.90;;;;;;4917133;29;20029;-89
2024/01/27 00:03:02;;;;;;;1999.90;999.90;;;-0.10;99.90;;;;;;4916725;29;20143;-89
2024/01/27 00:05:28;;;;;;;1999.90;999.90;;;-0.10;99.90;;;;;;4917059;29;20040;-89
2024/01/27 00:07:53;;;;;;;1999.90;999.90;;;-0.20;99.90;;;;;;4918233;29;20403;-89
2024/01/27 00:10:19;;;;;;;1999.90;999.90;;;-0.20;99.90;;;;;;4917076;29;20028;-89
2024/01/27 00:12:44;;;;;;;1999.90;999.90;;;-0.20;99.90;;;;;;4916480;29;20322;-89
2024/01/27 00:15:10;;;;;;;1999.90;999.90;;;-0.20;99.90;;;;;;4918132;29;20091;-89
2024/01/27 00:17:36;;;;;;;1999.90;999.90;;;-0.20;99.90;;;;;;4918355;29;20036;-88
2024/01/27 00:20:02;;;;;;;1999.90;999.90;;;-0.20;99.90;;;;;;4916822;29;20124;-89
2024/01/27 00:22:28;;;;;;;1999.90;999.90;;;-0.10;99.90;;;;;;4917744;29;20182;-89
2024/01/27 00:24:53;;;;;;;1999.90;999.90;;;0.00;99.90;;;;;;4916522;29;20186;-89
2024/01/27 00:27:19;;;;;;;1999.90;999.90;;;0.10;99.90;;;;;;4917896;29;20036;-89
2024/01/27 00:29:44;;;;;;;1999.90;999.90;;;0.10;99.90;;;;;;4919602;29;20173;-89
2024/01/27 00:32:10;;;;;;;1999.90;999.90;;;0.20;99.90;;;;;;4919834;29;20490;-89
2024/01/27 00:34:36;;;;;;;1999.90;999.90;;;0.10;99.90;;;;;;4919836;29;20542;-89
2024/01/27 00:37:01;;;;;;;1999.90;999.90;;;0.10;99.90;;;;;;4919767;29;20538;-89
2024/01/27 00:39:27;;;;;;;1999.90;999.90;;;0.00;99.90;;;;;;4919844;29;20036;-89
2024/01/27 00:41:54;;;;;;;1999.90;999.90;;;-0.10;99.90;;;;;;4921061;29;20126;-89
2024/01/27 00:44:20;;;;;;;1999.90;999.90;;;-0.10;99.90;;;;;;4919715;29;20069;-89
2024/01/27 00:46:46;;;;;;;1999.90;999.90;;;-0.10;99.90;;;;;;4919767;29;20029;-89
2024/01/27 00:49:11;;;;;;;1999.90;999.90;;;-0.20;99.90;;;;;;4919686;29;20036;-89
2024/01/27 00:51:37;;;;;;;1999.90;999.90;;;-0.40;99.90;;;;;;4919515;29;20440;-89
2024/01/27 00:54:02;;;;;;;1999.90;999.90;;;-0.40;99.90;;;;;;4919355;29;20089;-89
2024/01/27 00:56:28;;;;;;;1999.90;999.90;;;-0.40;99.90;;;;;;4919559;29;20037;-89
2024/01/27 00:58:53;;;;;;;1999.90;999.90;;;-0.40;99.90;;;;;;4919386;29;20199;-89
2024/01/27 01:01:19;;;;;;;1999.90;999.90;;;-0.40;99.90;;;;;;4919444;29;20061;-89
2024/01/27 01:03:45;;;;;;;1999.90;999.90;;;-0.40;99.90;;;;;;4919259;29;20045;-89
2024/01/27 01:06:11;;;;;;;1999.90;999.90;;;-0.40;99.90;;;;;;4919430;29;20498;-89
2024/01/27 01:08:36;;;;;;;1999.90;999.90;;;-0.40;99.90;;;;;;4919249;29;20045;-89
2024/01/27 01:11:02;;;;;;;1999.90;999.90;;;-0.40;99.90;;;;;;4919089;29;20058;-89
2024/01/27 01:13:27;;;;;;;1999.90;999.90;;;-0.30;99.90;;;;;;4919068;29;20044;-89
2024/01/27 01:15:53;;;;;;;1999.90;999.90;;;-0.40;99.90;;;;;;4920526;29;20035;-89
2024/01/27 01:18:19;;;;;;;1999.90;999.90;;;-0.40;99.90;;;;;;4919178;29;20036;-89
2024/01/27 01:20:44;;;;;;;1999.90;999.90;;;-0.40;99.90;;;;;;4919037;29;20041;-89
2024/01/27 01:23:10;;;;;;;1999.90;999.90;;;-0.40;99.90;;;;;;4918631;29;20136;-89
2024/01/27 01:25:35;;;;;;;1999.90;999.90;;;-0.60;99.90;;;;;;4918734;29;20032;-89
2024/01/27 01:28:01;;;;;;;1999.90;999.90;;;-0.60;99.90;;;;;;4919330;29;20043;-89
2024/01/27 01:30:27;;;;;;;1999.90;999.90;;;-0.60;99.90;;;;;;4919145;29;20435;-89
2024/01/27 01:32:52;;;;;;;1999.90;999.90;;;-0.70;99.90;;;;;;4918578;29;20045;-89
2024/01/27 01:35:18;;;;;;;1999.90;999.90;;;-0.70;99.90;;;;;;4920441;29;20065;-89
2024/01/27 01:37:43;;;;;;;1999.90;999.90;;;-0.70;99.90;;;;;;4919111;29;20183;-89
2024/01/27 01:40:09;;;;;;;1999.90;999.90;;;-0.70;99.90;;;;;;4919912;29;20400;-89
2024/01/27 01:42:35;;;;;;;1999.90;999.90;;;-0.80;99.90;;;;;;4918634;29;20048;-89
2024/01/27 01:45:00;;;;;;;1999.90;999.90;;;-0.70;99.90;;;;;;4918864;29;20171;-89
2024/01/27 01:47:26;;;;;;;1999.90;999.90;;;-0.50;99.90;;;;;;4918910;29;20041;-89
2024/01/27 01:49:52;;;;;;;1999.90;999.90;;;-0.30;99.90;;;;;;4918931;29;20060;-89
2024/01/27 01:52:20;;;;;;;1999.90;999.90;;;-0.20;99.90;;;;;;4918705;29;20127;-89
2024/01/27 01:54:50;;;;;;;1999.90;999.90;;;-0.10;99.90;;;;;;4918598;29;20037;-89
2024/01/27 01:57:16;;;;;;;1999.90;999.90;;;-0.10;99.90;;;;;;4920186;29;20036;-89
2024/01/27 01:59:42;;;;;;;1999.90;999.90;;;-0.20;99.90;;;;;;4918715;29;20036;-89
2024/01/27 02:02:12;;;;;;;1999.90;999.90;;;-0.10;99.90;;;;;;4918266;29;20055;-89
2024/01/27 02:04:45;;;;;;;1999.90;999.90;;;-0.20;99.90;;;;;;4918420;29;20029;-89
2024/01/27 02:07:11;;;;;;;1999.90;999.90;;;-0.20;99.90;;;;;;4918702;29;20037;-89
2024/01/27 02:09:37;;;;;;;1999.90;999.90;;;-0.20;99.90;;;;;;4918547;29;20061;-89
2024/01/27 02:12:03;;;;;;;1999.90;999.90;;;-0.20;99.90;;;;;;4918375;29;20511;-89
2024/01/27 02:14:29;;;;;;;1999.90;999.90;;;-0.30;99.90;;;;;;4918095;29;20458;-89
2024/01/27 02:16:54;;;;;;;1999.90;999.90;;;-0.30;99.90;;;;;;4918401;29;20187;-89
2024/01/27 02:19:20;;;;;;;1999.90;999.90;;;-0.30;99.90;;;;;;4918446;29;20071;-89
2024/01/27 02:21:46;;;;;;;1999.90;999.90;;;-0.20;99.90;;;;;;4918966;29;20071;-89
2024/01/27 02:24:11;;;;;;;1999.90;999.90;;;-0.20;99.90;;;;;;4918365;29;20036;-89
2024/01/27 02:26:37;;;;;;;1999.90;999.90;;;-0.20;99.90;;;;;;4918373;29;20066;-89
2024/01/27 02:29:03;;;;;;;1999.90;999.90;;;-0.20;99.90;;;;;;4918446;29;20478;-89
2024/01/27 02:31:29;;;;;;;1999.90;999.90;;;-0.30;99.90;;;;;;4917603;29;20131;-89
2024/01/27 02:33:54;;;;;;;1999.90;999.90;;;-0.40;99.90;;;;;;4918210;29;20033;-89
2024/01/27 02:36:20;;;;;;;1999.90;999.90;;;-0.50;99.90;;;;;;4918187;29;20036;-89
2024/01/27 02:38:45;;;;;;;1999.90;999.90;;;-0.60;99.90;;;;;;4918088;29;20518;-90
2024/01/27 02:41:11;;;;;;;1999.90;999.90;;;-0.70;99.90;;;;;;4917630;29;20128;-90
2024/01/27 02:43:37;;;;;;;1999.90;999.90;;;-0.80;99.90;;;;;;4917839;29;20059;-89
2024/01/27 02:46:06;;;;;;;1999.90;999.90;;;-0.90;99.90;;;;;;4919158;29;20033;-90
2024/01/27 02:48:32;;;;;;;1999.90;999.90;;;-1.00;99.90;;;;;;4918045;29;20040;-89
2024/01/27 02:50:57;;;;;;;1999.90;999.90;;;-1.00;99.90;;;;;;4918868;29;20041;-90
2024/01/27 02:53:23;;;;;;;1999.90;999.90;;;-1.00;99.90;;;;;;4916787;29;20040;-90
2024/01/27 02:55:48;;;;;;;1999.90;999.90;;;-1.00;99.90;;;;;;4917738;29;20032;-90
2024/01/27 02:58:14;;;;;;;1999.90;999.90;;;-1.10;99.90;;;;;;4917985;29;20028;-89
2024/01/27 03:00:39;;;;;;;1999.90;999.90;;;-1.20;99.90;;;;;;4918679;29;20036;-90
2024/01/27 03:03:05;;;;;;;1999.90;999.90;;;-1.20;99.90;;;;;;4918693;29;20060;-89
2024/01/27 03:05:30;;;;;;;1999.90;999.90;;;-1.10;99.90;;;;;;4919179;29;20065;-89
2024/01/27 03:07:56;;;;;;;1999.90;999.90;;;-1.20;99.90;;;;;;4917737;29;20131;-89
2024/01/27 03:10:22;;;;;;;1999.90;999.90;;;-1.10;99.90;;;;;;4917532;29;20040;-89
2024/01/27 03:12:47;;;;;;;1999.90;999.90;;;-1.10;99.90;;;;;;4917503;29;20068;-89
2024/01/27 03:15:13;;;;;;;1999.90;999.90;;;-1.10;99.90;;;;;;4917153;29;20067;-89
2024/01/27 03:17:39;;;;;;;1999.90;999.90;;;-1.10;99.90;;;;;;4917930;29;20127;-89
2024/01/27 03:20:08;;;;;;;1999.90;999.90;;;-1.10;99.90;;;;;;4917755;29;20111;-89
2024/01/27 03:22:34;;;;;;;1999.90;999.90;;;-1.10;99.90;;;;;;4918267;29;20044;-89
2024/01/27 03:24:59;;;;;;;1999.90;999.90;;;-1.00;99.90;;;;;;4917235;29;20032;-89
2024/01/27 03:27:25;;;;;;;1999.90;999.90;;;-0.90;99.90;;;;;;4917341;29;20037;-89
2024/01/27 03:29:50;;;;;;;1999.90;999.90;;;-0.90;99.90;;;;;;4918596;29;20037;-89
2024/01/27 03:32:16;;;;;;;1999.90;999.90;;;-0.80;99.90;;;;;;4917164;29;20041;-89
2024/01/27 03:34:45;;;;;;;1999.90;999.90;;;-0.80;99.90;;;;;;4917282;29;20029;-89
2024/01/27 03:37:10;;;;;;;1999.90;999.90;;;-1.00;99.90;;;;;;4917395;29;20039;-89
2024/01/27 03:39:36;;;;;;;1999.90;999.90;;;-1.10;99.90;;;;;;4917257;29;20037;-89
2024/01/27 03:42:02;;;;;;;1999.90;999.90;;;-1.10;99.90;;;;;;4917165;29;20577;-90
2024/01/27 03:44:27;;;;;;;1999.90;999.90;;;-1.20;99.90;;;;;;4917091;29;20040;-89
2024/01/27 03:46:53;;;;;;;1999.90;999.90;;;-1.20;99.90;;;;;;4918727;29;20111;-90
2024/01/27 03:49:18;;;;;;;1999.90;999.90;;;-1.30;99.90;;;;;;4917034;29;20040;-89
2024/01/27 03:51:44;;;;;;;1999.90;999.90;;;-1.20;99.90;;;;;;4918074;29;20032;-89
2024/01/27 03:54:09;;;;;;;1999.90;999.90;;;-1.20;99.90;;;;;;4917423;29;20107;-89
2024/01/27 03:56:35;;;;;;;1999.90;999.90;;;-1.20;99.90;;;;;;4917177;29;20064;-90
2024/01/27 03:59:00;;;;;;;1999.90;999.90;;;-1.20;99.90;;;;;;4917177;29;20041;-89
2024/01/27 04:01:26;;;;;;;1999.90;999.90;;;-1.30;99.90;;;;;;4916794;29;20045;-89
2024/01/27 04:03:51;;;;;;;1999.90;999.90;;;-1.30;99.90;;;;;;4918139;29;20127;-89
2024/01/27 04:06:17;;;;;;;1999.90;999.90;;;-1.40;99.90;;;;;;4920313;29;20551;-89
2024/01/27 04:08:45;;;;;;;1999.90;999.90;;;-1.40;99.90;;;;;;4920144;29;20411;-89
2024/01/27 04:11:22;;;;;;;1999.90;999.90;;;-1.30;99.90;;;;;;4921555;29;20563;-89
2024/01/27 04:13:49;;;;;;;1999.90;999.90;;;-1.30;99.90;;;;;;4920110;29;20072;-89
2024/01/27 04:16:15;;;;;;;1999.90;999.90;;;-1.30;99.90;;;;;;4920411;29;20045;-89
2024/01/27 04:18:42;;;;;;;1999.90;999.90;;;-1.30;99.90;;;;;;4920292;29;20051;-89
2024/01/27 04:21:07;;;;;;;1999.90;999.90;;;-1.30;99.90;;;;;;4919503;29;20033;-89
2024/01/27 04:23:33;;;;;;;1999.90;999.90;;;-1.40;99.90;;;;;;4919722;29;20044;-89
2024/01/27 04:25:59;;;;;;;1999.90;999.90;;;-1.30;99.90;;;;;;4920090;29;20037;-89
2024/01/27 04:28:25;;;;;;;1999.90;999.90;;;-1.30;99.90;;;;;;4920092;29;20035;-89
2024/01/27 04:30:50;;;;;;;1999.90;999.90;;;-1.40;99.90;;;;;;4921412;29;20054;-89
2024/01/27 04:33:16;;;;;;;1999.90;999.90;;;-1.40;99.90;;;;;;4919655;29;20092;-89
2024/01/27 04:35:41;;;;;;;1999.90;999.90;;;-1.50;99.90;;;;;;4920121;29;20041;-89
2024/01/27 04:38:08;;;;;;;1999.90;999.90;;;-1.50;99.90;;;;;;4919776;29;20049;-90
2024/01/27 04:40:35;;;;;;;1999.90;999.90;;;-1.60;99.90;;;;;;4919816;29;20491;-89
2024/01/27 04:43:01;;;;;;;1999.90;999.90;;;-1.60;99.90;;;;;;4919646;29;20105;-89
2024/01/27 04:45:27;;;;;;;1999.90;999.90;;;-1.60;99.90;;;;;;4921268;29;20429;-89
2024/01/27 04:47:53;;;;;;;1999.90;999.90;;;-1.60;99.90;;;;;;4919314;29;20051;-89
2024/01/27 04:50:19;;;;;;;1999.90;999.90;;;-1.70;99.90;;;;;;4919730;29;20041;-90
2024/01/27 04:52:45;;;;;;;1999.90;999.90;;;-1.70;99.90;;;;;;4920871;29;20071;-89
2024/01/27 04:55:11;;;;;;;1999.90;999.90;;;-1.70;99.90;;;;;;4919319;29;20466;-90
2024/01/27 04:57:37;;;;;;;1999.90;999.90;;;-1.70;99.90;;;;;;4919572;29;20040;-89
2024/01/27 05:00:07;;;;;;;1999.90;999.90;;;-1.70;99.90;;;;;;4919486;29;20032;-89
2024/01/27 05:02:33;;;;;;;1999.90;999.90;;;-1.70;99.90;;;;;;4919284;29;20044;-89
2024/01/27 05:04:59;;;;;;;1999.90;999.90;;;-1.20;99.90;;;;;;4919287;29;20040;-89
2024/01/27 05:07:24;;;;;;;1999.90;999.90;;;-1.70;99.90;;;;;;4920711;29;20063;-89
2024/01/27 05:09:50;;;;;;;1999.90;999.90;;;-1.80;99.90;;;;;;4919412;29;20033;-89
2024/01/27 05:12:16;;;;;;;1999.90;999.90;;;-1.80;99.90;;;;;;4919414;29;20415;-89
2024/01/27 05:14:45;;;;;;;1999.90;999.90;;;-1.70;99.90;;;;;;4918223;29;20507;-89
2024/01/27 05:17:11;;;;;;;1999.90;999.90;;;-1.70;99.90;;;;;;4919346;29;20181;-89
2024/01/27 05:19:36;;;;;;;1999.90;999.90;;;-1.70;99.90;;;;;;4920630;29;20185;-89
2024/01/27 05:22:02;;;;;;;1999.90;999.90;;;-1.70;99.90;;;;;;4918635;29;20544;-89
2024/01/27 05:24:27;;;;;;;1999.90;999.90;;;-1.70;99.90;;;;;;4919048;29;20044;-89
2024/01/27 05:26:53;;;;;;;1999.90;999.90;;;-1.70;99.90;;;;;;4919189;29;20043;-89
2024/01/27 05:29:19;;;;;;;1999.90;999.90;;;-1.70;99.90;;;;;;4919102;29;20040;-89
2024/01/27 05:31:44;;;;;;;1999.90;999.90;;;-1.80;99.90;;;;;;4903244;29;20061;-89
2024/01/27 05:34:10;;;;;;;1999.90;999.90;;;-1.80;99.90;;;;;;4919119;29;20072;-90
2024/01/27 05:36:36;;;;;;;1999.90;999.90;;;-1.70;99.90;;;;;;4919067;29;20044;-90
2024/01/27 05:39:04;;;;;;;1999.90;999.90;;;-1.70;99.90;;;;;;4918846;29;20033;-89
2024/01/27 05:41:30;;;;;;;1999.90;999.90;;;-1.70;99.90;;;;;;4918805;29;20809;-89
2024/01/27 05:43:57;;;;;;;1999.90;999.90;;;-1.50;99.90;;;;;;4918780;29;20045;-89
2024/01/27 05:46:26;;;;;;;1999.90;999.90;;;-1.50;99.90;;;;;;4920389;29;20483;-89
2024/01/27 05:48:57;;;;;;;1999.90;999.90;;;-1.50;99.90;;;;;;4918980;29;20041;-89
2024/01/27 05:51:23;;;;;;;1999.90;999.90;;;-1.40;99.90;;;;;;4918678;29;20039;-89
2024/01/27 05:53:49;;;;;;;1999.90;999.90;;;-1.30;99.90;;;;;;4918650;29;20032;-90
2024/01/27 05:56:16;;;;;;;1999.90;999.90;;;-1.40;99.90;;;;;;4918797;29;20048;-89
2024/01/27 05:58:42;;;;;;;1999.90;999.90;;;-1.40;99.90;;;;;;4918757;29;20037;-89
2024/01/27 06:01:09;;;;;;;1999.90;999.90;;;-1.20;99.90;;;;;;4919977;29;20506;-89
2024/01/27 06:03:35;;;;;;;1999.90;999.90;;;-1.60;99.90;;;;;;4918628;29;20135;-89
2024/01/27 06:06:01;;;;;;;1999.90;999.90;;;-1.60;99.90;;;;;;4918638;29;20093;-87
2024/01/27 06:08:27;;;;;;;1999.90;999.90;;;-1.60;99.90;;;;;;4918745;29;20093;-87
2024/01/27 06:10:52;;;;;;;1999.90;999.90;;;-1.60;99.90;;;;;;4919960;29;20068;-87
2024/01/27 06:13:18;;;;;;;1999.90;999.90;;;-1.70;99.90;;;;;;4918181;29;20032;-87
2024/01/27 06:15:43;;;;;;;1999.90;999.90;;;-1.60;99.90;;;;;;4918467;29;20041;-87
2024/01/27 06:18:09;;;;;;;1999.90;999.90;;;-1.50;99.90;;;;;;4918505;29;20139;-87
2024/01/27 06:20:34;;;;;;;1999.90;999.90;;;-1.80;99.90;;;;;;4918202;29;20032;-87
2024/01/27 06:23:00;;;;;;;1999.90;999.90;;;-1.80;99.90;;;;;;4918266;29;20048;-87
2024/01/27 06:25:26;;;;;;;1999.90;999.90;;;-1.80;99.90;;;;;;4918368;29;20033;-87
2024/01/27 06:27:51;;;;;;;1999.90;999.90;;;-1.40;99.90;;;;;;4918073;29;20044;-87
2024/01/27 06:30:18;;;;;;;1999.90;999.90;;;-1.90;99.90;;;;;;4918306;29;20036;-87
2024/01/27 06:32:43;;;;;;;1999.90;999.90;;;-2.00;99.90;;;;;;4918097;29;20813;-87
2024/01/27 06:35:09;;;;;;;1999.90;999.90;;;-2.00;99.90;;;;;;4918351;29;20041;-88
2024/01/27 06:37:35;;;;;;;1999.90;999.90;;;-2.00;99.90;;;;;;4918266;29;20052;-89
2024/01/27 06:40:00;;;;;;;1999.90;999.90;;;-2.00;99.90;;;;;;4918475;29;20040;-87
2024/01/27 06:42:26;;;;;;;1999.90;999.90;;;-2.00;99.90;;;;;;4917954;29;20044;-87
2024/01/27 06:44:52;;;;;;;1999.90;999.90;;;-2.10;99.90;;;;;;4917966;29;20052;-86
2024/01/27 06:47:17;;;;;;;1999.90;999.90;;;-2.10;99.90;;;;;;4918315;29;20036;-87
2024/01/27 06:49:43;;;;;;;1999.90;999.90;;;-2.10;99.90;;;;;;4918176;29;20036;-87
2024/01/27 06:52:08;;;;;;;1999.90;999.90;;;-2.10;99.90;;;;;;4918946;29;20128;-87
2024/01/27 06:54:36;;;;;;;1999.90;999.90;;;-2.00;99.90;;;;;;4918361;29;20037;-87
2024/01/27 06:57:01;;;;;;;1999.90;999.90;;;-2.00;99.90;;;;;;4919783;29;20076;-87
2024/01/27 06:59:27;;;;;;;1999.90;999.90;;;-1.90;99.90;;;;;;4919020;29;20483;-87
2024/01/27 07:01:52;;;;;;;1999.90;999.90;;;-1.90;99.90;;;;;;4919878;29;20033;-87
2024/01/27 07:04:18;;;;;;;1999.90;999.90;;;-1.80;99.90;;;;;;4918221;29;20041;-87
2024/01/27 07:06:44;;;;;;;1999.90;999.90;;;-1.80;99.90;;;;;;4919483;29;20033;-89
2024/01/27 07:09:13;;;;;;;1999.90;999.90;;;-1.80;99.90;;;;;;4919403;29;20076;-88
2024/01/27 07:11:38;;;;;;;1999.90;999.90;;;-1.90;99.90;;;;;;4918000;29;20039;-89
2024/01/27 07:14:04;;;;;;;1999.90;999.90;;;-1.80;99.90;;;;;;4917940;29;20047;-89
2024/01/27 07:16:30;;;;;;;1999.90;999.90;;;-1.80;99.90;;;;;;4917890;29;20032;-89
2024/01/27 07:18:55;;;;;;;1999.90;999.90;;;-1.80;99.90;;;;;;4917520;29;20040;-88
2024/01/27 07:21:21;;;;;;;1999.90;999.90;;;-1.80;99.90;;;;;;4918372;29;20131;-89
2024/01/27 07:23:47;;;;;;;1999.90;999.90;;;-1.70;99.90;;;;;;4914761;29;20041;-90
2024/01/27 07:26:13;;;;;;;1999.90;999.90;;;-1.60;99.90;;;;;;4914861;29;20372;-91
2024/01/27 07:28:38;;;;;;;1999.90;999.90;;;-1.40;99.90;;;;;;4914788;29;20115;-89
2024/01/27 07:31:05;;;;;;;1999.90;999.90;;;-1.70;99.90;;;;;;4914489;29;20566;-90
2024/01/27 07:33:31;;;;;;;1999.90;999.90;;;-1.80;99.90;;;;;;4914672;29;20144;-89
2024/01/27 07:35:57;;;;;;;1999.90;999.90;;;-1.80;99.90;;;;;;4914813;29;20033;-90
2024/01/27 07:38:22;;;;;;;1999.90;999.90;;;-1.80;99.90;;;;;;4914189;29;20834;-91
2024/01/27 07:40:48;;;;;;;1999.90;999.90;;;-1.80;99.90;;;;;;4915064;29;20033;-90
2024/01/27 07:43:20;;;;;;;1999.90;999.90;;;-1.80;99.90;;;;;;4916454;29;20104;-94
2024/01/27 07:45:46;;;;;;;1999.90;999.90;;;-1.80;99.90;;;;;;4916440;29;20060;-91
2024/01/27 07:48:14;;;;;;;1999.90;999.90;;;-1.80;99.90;;;;;;4915804;29;20098;-90
2024/01/27 07:50:40;;;;;;;1999.90;999.90;;;-1.70;99.90;;;;;;4915672;29;20069;-89
2024/01/27 07:53:05;;;;;;;1999.90;999.90;;;-1.60;99.90;;;;;;4915435;29;20161;-90
2024/01/27 07:55:34;;;;;;;1999.90;999.90;;;-1.70;99.90;;;;;;4915623;29;20041;-89
2024/01/27 07:57:59;;;;;;;1999.90;999.90;;;-1.70;99.90;;;;;;4914064;29;20063;-89
2024/01/27 08:00:25;;;;;;;1999.90;999.90;;;-1.60;99.90;;;;;;4914027;29;20037;-89
2024/01/27 08:02:51;;;;;;;1999.90;999.90;;;-1.40;99.90;;;;;;4913709;29;20049;-91
2024/01/27 08:05:17;;;;;;;1999.90;999.90;;;-1.60;99.90;;;;;;4913898;29;20037;-90
2024/01/27 08:07:42;;;;;;;1999.90;999.90;;;-1.60;99.90;;;;;;4914151;29;20033;-90
2024/01/27 08:10:10;;;;;;;1999.90;999.90;;;-1.50;99.90;;;;;;4914351;29;20037;-90
2024/01/27 08:12:36;;;;;;;1999.90;999.90;;;-1.50;99.90;;;;;;4913566;29;20058;-91
2024/01/27 08:15:02;;;;;;;1999.90;999.90;;;-1.50;99.90;;;;;;4913839;29;20057;-89
2024/01/27 08:17:28;;;;;;;1999.90;999.90;;;-1.40;99.90;;;;;;4914010;29;20041;-89
2024/01/27 08:19:53;;;;;;;1999.90;999.90;;;-1.40;99.90;;;;;;4914925;29;20070;-88
2024/01/27 08:22:19;;;;;;;1999.90;999.90;;;-1.30;99.90;;;;;;4913879;29;20449;-88
2024/01/27 08:24:44;;;;;;;1999.90;999.90;;;-1.30;99.90;;;;;;4914043;29;20541;-89
2024/01/27 08:27:10;;;;;;;1999.90;999.90;;;-1.30;99.90;;;;;;4914199;29;20496;-89
2024/01/27 08:29:35;;;;;;;1999.90;999.90;;;-1.00;99.90;;;;;;4900272;29;20034;-89
2024/01/27 08:32:01;;;;;;;1999.90;999.90;;;-1.20;99.90;;;;;;4913991;29;20048;-89
2024/01/27 08:34:27;;;;;;;1999.90;999.90;;;-1.10;99.90;;;;;;4914410;29;20037;-88
2024/01/27 08:36:52;;;;;;;1999.90;999.90;;;-0.80;99.90;;;;;;4914030;29;20037;-88
2024/01/27 08:39:18;;;;;;;1999.90;999.90;;;-0.80;99.90;;;;;;4912865;29;20119;-88
2024/01/27 08:41:43;;;;;;;1999.90;999.90;;;-0.70;99.90;;;;;;4913200;29;20415;-89
2024/01/27 08:44:09;;;;;;;1999.90;999.90;;;0.10;99.90;;;;;;4913152;29;20064;-88
2024/01/27 08:46:35;;;;;;;1999.90;999.90;;;-0.50;99.90;;;;;;4913498;29;20124;-89
2024/01/27 08:49:04;;;;;;;1999.90;999.90;;;-0.50;99.90;;;;;;4914018;29;20056;-93
2024/01/27 08:51:30;;;;;;;1999.90;999.90;;;-0.30;99.90;;;;;;4915707;29;20037;-90
2024/01/27 08:53:55;;;;;;;1999.90;999.90;;;-0.40;99.90;;;;;;4916728;29;20061;-88
2024/01/27 08:56:21;;;;;;;1999.90;999.90;;;-0.40;99.90;;;;;;4919636;29;20035;-88
2024/01/27 08:58:47;;;;;;;1999.90;999.90;;;0.40;99.90;;;;;;4919647;29;20493;-88
2024/01/27 09:01:15;;;;;;;1999.90;999.90;;;-0.20;99.90;;;;;;4919928;29;20032;-90
2024/01/27 09:03:41;;;;;;;1999.90;999.90;;;0.00;99.90;;;;;;4919194;29;20048;-88
2024/01/27 09:06:10;;;;;;;1999.90;999.90;;;-0.20;99.90;;;;;;4919042;29;20033;-89
2024/01/27 09:08:35;;;;;;;1999.90;999.90;;;-0.20;99.90;;;;;;4920653;29;20041;-91
2024/01/27 09:11:02;;;;;;;1999.90;999.90;;;-0.10;99.90;;;;;;4921664;29;20029;-89
2024/01/27 09:13:28;;;;;;;1999.90;999.90;;;-0.10;99.90;;;;;;4919068;29;20047;-91
2024/01/27 09:15:53;;;;;;;1999.90;999.90;;;0.40;99.90;;;;;;4917861;29;20044;-90
2024/01/27 09:18:19;;;;;;;1999.90;999.90;;;0.00;99.90;;;;;;4919325;29;20033;-92
2024/01/27 09:20:48;;;;;;;1999.90;999.90;;;0.10;99.90;;;;;;4913592;29;20036;-93
2024/01/27 09:23:16;;;;;;;1999.90;999.90;;;-0.40;99.90;;;;;;4919450;29;20048;-91
2024/01/27 09:25:42;;;;;;;1999.90;999.90;;;0.30;99.90;;;;;;4919071;29;20104;-89
2024/01/27 09:28:14;;;;;;;1999.90;999.90;;;0.10;99.90;;;;;;4933597;29;20032;-92
2024/01/27 09:30:43;;;;;;;1999.90;999.90;;;0.10;99.90;;;;;;4926070;29;20035;-92
2024/01/27 09:33:08;;;;;;;1999.90;999.90;;;0.20;99.90;;;;;;4920440;29;20032;-92
2024/01/27 09:35:35;;;;;;;1999.90;999.90;;;0.20;99.90;;;;;;4923342;29;20037;-92
2024/01/27 09:38:21;;;;;;;1999.90;999.90;;;0.30;99.90;;;;;;4922419;29;20028;-94
2024/01/27 09:40:48;;;;;;;1999.90;999.90;;;0.30;99.90;;;;;;4922928;29;20033;-92
2024/01/27 09:43:21;;;;;;;1999.90;999.90;;;0.30;99.90;;;;;;4918605;29;20040;-92
2024/01/27 09:45:47;;;;;;;1999.90;999.90;;;0.30;99.90;;;;;;4919367;29;20043;-92
2024/01/27 09:48:13;;;;;;;1999.90;999.90;;;0.30;99.90;;;;;;4920116;29;20474;-93
2024/01/27 09:50:43;;;;;;;1999.90;999.90;;;0.40;99.90;;;;;;4925326;28;20092;-92
2024/01/27 09:53:10;;;;;;;1999.90;999.90;;;0.40;99.90;;;;;;4918073;29;20033;-92
2024/01/27 09:55:36;;;;;;;1999.90;999.90;;;0.40;99.90;;;;;;4919612;29;20039;-88
2024/01/27 09:58:03;;;;;;;1999.90;999.90;;;0.40;99.90;;;;;;4918173;29;20040;-89
2024/01/27 10:00:37;;;;;;;1999.90;999.90;;;0.50;99.90;;;;;;4918363;29;20040;-91
2024/01/27 10:03:04;;;;;;;1999.90;999.90;;;0.50;99.90;;;;;;4918503;29;20047;-89
2024/01/27 10:05:35;;;;;;;1999.90;999.90;;;0.60;99.90;;;;;;4918775;29;20064;-91
2024/01/27 10:08:05;;;;;;;1999.90;999.90;;;0.80;99.90;;;;;;4919154;29;20036;-89
2024/01/27 10:10:38;;;;;;;1999.90;999.90;;;0.70;99.90;;;;;;4919293;29;20047;-90
2024/01/27 10:13:04;;;;;;;1999.90;999.90;;;0.90;99.90;;;;;;4918724;29;20515;-90
2024/01/27 10:15:32;;;;;;;1999.90;999.90;;;0.60;99.90;;;;;;4918547;29;20041;-89
2024/01/27 10:18:08;;;;;;;1999.90;999.90;;;0.90;99.90;;;;;;4919305;29;20036;-89
2024/01/27 10:20:34;;;;;;;1999.90;999.90;;;0.90;99.90;;;;;;4918621;29;20044;-89
2024/01/27 10:23:11;;;;;;;1999.90;999.90;;;0.90;99.90;;;;;;4918132;29;20195;-89
2024/01/27 10:25:45;;;;;;;1999.90;999.90;;;1.10;99.90;;;;;;4918799;29;20033;-89
2024/01/27 10:28:11;;;;;;;1999.90;999.90;;;1.10;99.90;;;;;;4918492;29;20048;-86
2024/01/27 10:30:37;;;;;;;1999.90;999.90;;;1.00;99.90;;;;;;4918518;29;20036;-87
2024/01/27 10:33:03;;;;;;;1999.90;999.90;;;0.80;99.90;;;;;;4918018;29;20059;-88
2024/01/27 10:35:29;;;;;;;1999.90;999.90;;;1.10;99.90;;;;;;4918774;29;20043;-87
2024/01/27 10:37:55;;;;;;;1999.90;999.90;;;1.20;99.90;;;;;;4918737;29;20043;-88
2024/01/27 10:40:31;;;;;;;1999.90;999.90;;;1.20;99.90;;;;;;4919372;29;20192;-89
2024/01/27 10:43:08;;;;;;;1999.90;999.90;;;1.20;99.90;;;;;;4918194;29;20037;-86
2024/01/27 10:45:39;;;;;;;1999.90;999.90;;;1.30;99.90;;;;;;4918265;29;20039;-91
2024/01/27 10:48:12;;;;;;;1999.90;999.90;;;1.40;99.90;;;;;;4935955;29;20068;-88
2024/01/27 10:50:39;;;;;;;1999.90;999.90;;;1.50;99.90;;;;;;4938503;29;20031;-87
2024/01/27 10:53:09;;;;;;;1999.90;999.90;;;1.60;99.90;;;;;;4939824;28;20028;-86
2024/01/27 10:55:39;;;;;;;1999.90;999.90;;;1.80;99.90;;;;;;4944700;29;20034;-86
2024/01/27 10:58:05;;;;;;;1999.90;999.90;;;1.80;99.90;;;;;;4940076;29;20927;-86
2024/01/27 11:00:32;;;;;;;1999.90;999.90;;;1.90;99.90;;;;;;4939562;29;20716;-86
2024/01/27 11:02:59;;;;;;;1999.90;999.90;;;2.30;99.90;;;;;;4936978;29;20044;-86
2024/01/27 11:05:26;;;;;;;1999.90;999.90;;;2.10;99.90;;;;;;4937788;29;20923;-87
2024/01/27 11:07:53;;;;;;;1999.90;999.90;;;2.10;99.90;;;;;;4937583;29;20048;-86
2024/01/27 11:10:18;;;;;;;1999.90;999.90;;;2.20;99.90;;;;;;4936883;29;20036;-87
2024/01/27 11:12:45;;;;;;;1999.90;999.90;;;2.20;99.90;;;;;;4936161;29;20812;-86
2024/01/27 11:15:11;;;;;;;1999.90;999.90;;;2.30;99.90;;;;;;4938548;29;20044;-86
2024/01/27 11:17:41;;;;;;;1999.90;999.90;;;2.30;99.90;;;;;;4937819;29;20032;-86
2024/01/27 11:20:08;;;;;;;1999.90;999.90;;;2.40;99.90;;;;;;4937404;29;20111;-86
2024/01/27 11:22:34;;;;;;;1999.90;999.90;;;2.40;99.90;;;;;;4936573;29;20511;-86
2024/01/27 11:25:06;;;;;;;1999.90;999.90;;;2.50;99.90;;;;;;4938828;29;20036;-86
2024/01/27 11:27:32;;;;;;;1999.90;999.90;;;2.50;99.90;;;;;;4938449;29;20032;-88
2024/01/27 11:29:57;;;;;;;1999.90;999.90;;;2.60;99.90;;;;;;4937004;29;20040;-87
2024/01/27 11:32:23;;;;;;;1999.90;999.90;;;2.70;99.90;;;;;;4936930;29;20060;-85
2024/01/27 11:34:49;;;;;;;1999.90;999.90;;;2.70;99.90;;;;;;4936167;29;20032;-86
2024/01/27 11:37:16;;;;;;;1999.90;999.90;;;2.80;99.90;;;;;;4936507;29;20135;-86
2024/01/27 11:39:41;;;;;;;1999.90;999.90;;;2.90;99.90;;;;;;4937890;29;20140;-85
2024/01/27 11:42:09;;;;;;;1999.90;999.90;;;2.90;99.90;;;;;;4936464;29;20119;-89
2024/01/27 11:44:38;;;;;;;1999.90;999.90;;;2.90;99.90;;;;;;4936100;29;20044;-87
2024/01/27 11:47:04;;;;;;;1999.90;999.90;;;3.30;99.90;;;;;;4937191;29;20033;-87
2024/01/27 11:49:30;;;;;;;1999.90;999.90;;;3.00;99.90;;;;;;4937180;29;20051;-85
2024/01/27 11:51:55;;;;;;;1999.90;999.90;;;3.20;99.90;;;;;;4936764;29;20040;-86
2024/01/27 11:54:21;;;;;;;1999.90;999.90;;;3.20;99.90;;;;;;4937056;29;20036;-86
2024/01/27 11:56:46;;;;;;;1999.90;999.90;;;3.20;99.90;;;;;;4937063;29;20036;-87